Time,TemperatureF,DewpointF,PressureIn,WindDirection,WindDirectionDegrees,WindSpeedMPH,WindSpeedGustMPH,Humidity,HourlyPrecipIn,Conditions,Clouds,dailyrainin,SoftwareType,DateUTC
2013-06-02 00:02:00,69.4,63.3,29.76,SW,225,2.2,-999.0,81,-99.99,,,0.00,Acu-Link.com,2013-06-02 04:02:00,
2013-06-02 00:17:00,69.8,63.7,29.75,SSW,202,2.7,-999.0,81,-99.99,,,0.00,Acu-Link.com,2013-06-02 04:17:00,
2013-06-02 00:32:00,70.3,63.8,29.75,SSW,202,3.2,-999.0,80,-99.99,,,0.00,Acu-Link.com,2013-06-02 04:32:00,
2013-06-02 00:47:00,69.8,64.0,29.74,SSW,202,0.0,-999.0,82,-99.99,,,0.00,Acu-Link.com,2013-06-02 04:47:00,
2013-06-02 01:03:00,69.4,64.7,29.72,East,90,0.0,-999.0,85,-99.99,,,0.00,Acu-Link.com,2013-06-02 05:03:00,
2013-06-02 01:18:00,69.3,64.3,29.70,SSE,157,0.0,-999.0,84,-99.99,,,0.00,Acu-Link.com,2013-06-02 05:18:00,
2013-06-02 01:33:00,69.1,64.7,29.71,SSW,202,4.2,-999.0,86,-99.99,,,0.00,Acu-Link.com,2013-06-02 05:33:00,
2013-06-02 01:48:00,69.1,64.7,29.70,SSW,202,3.2,-999.0,86,-99.99,,,0.00,Acu-Link.com,2013-06-02 05:48:00,
2013-06-02 02:03:00,68.9,64.5,29.72,SW,225,3.2,-999.0,86,-99.99,,,0.00,Acu-Link.com,2013-06-02 06:03:00,
2013-06-02 02:19:00,68.7,64.3,29.72,SW,225,2.2,-999.0,86,-99.99,,,0.00,Acu-Link.com,2013-06-02 06:19:00,
2013-06-02 02:34:00,68.0,64.6,29.71,SSW,202,4.7,-999.0,89,-99.99,,,0.00,Acu-Link.com,2013-06-02 06:34:00,
2013-06-02 02:49:00,67.3,64.6,29.71,SW,225,2.7,-999.0,91,-99.99,,,0.00,Acu-Link.com,2013-06-02 06:49:00,
2013-06-02 03:04:00,66.9,64.5,29.71,SW,225,3.2,-999.0,92,-99.99,,,0.00,Acu-Link.com,2013-06-02 07:04:00,
2013-06-02 03:19:00,66.9,64.5,29.72,SW,225,3.2,-999.0,92,-99.99,,,0.00,Acu-Link.com,2013-06-02 07:19:00,
2013-06-02 03:35:00,66.9,64.2,29.72,SSW,202,5.8,-999.0,91,-99.99,,,0.00,Acu-Link.com,2013-06-02 07:35:00,
2013-06-02 03:50:00,66.7,64.0,29.71,SW,225,5.8,-999.0,91,-99.99,,,0.00,Acu-Link.com,2013-06-02 07:50:00,
2013-06-02 04:05:00,66.4,64.0,29.70,SSW,202,6.8,-999.0,92,-99.99,,,0.00,Acu-Link.com,2013-06-02 08:05:00,
2013-06-02 04:21:00,66.4,64.0,29.71,SSW,202,5.8,-999.0,92,-99.99,,,0.00,Acu-Link.com,2013-06-02 08:21:00,
2013-06-02 04:36:00,66.2,63.8,29.70,SSW,202,6.3,-999.0,92,-99.99,,,0.00,Acu-Link.com,2013-06-02 08:36:00,
2013-06-02 04:51:00,66.2,63.8,29.70,SSW,202,5.3,-999.0,92,-99.99,,,0.00,Acu-Link.com,2013-06-02 08:51:00,
2013-06-02 05:06:00,66.2,63.8,29.69,SW,225,5.8,-999.0,92,-99.99,,,0.00,Acu-Link.com,2013-06-02 09:06:00,
2013-06-02 05:21:00,65.8,63.4,29.69,SW,225,6.8,-999.0,92,-99.99,,,0.00,Acu-Link.com,2013-06-02 09:21:00,
2013-06-02 05:36:00,64.2,63.3,29.69,SSW,202,5.3,-999.0,97,-99.99,,,0.00,Acu-Link.com,2013-06-02 09:36:00,
2013-06-02 05:52:00,64.0,62.8,29.69,SW,225,5.3,-999.0,96,-99.99,,,0.00,Acu-Link.com,2013-06-02 09:52:00,
2013-06-02 06:07:00,64.0,62.8,29.69,SSW,202,6.3,-999.0,96,-99.99,,,0.01,Acu-Link.com,2013-06-02 10:07:00,
2013-06-02 06:22:00,64.0,62.8,29.69,SW,225,4.2,-999.0,96,-99.99,,,0.02,Acu-Link.com,2013-06-02 10:22:00,
2013-06-02 06:37:00,64.0,62.8,29.70,SSW,202,4.2,-999.0,96,-99.99,,,0.03,Acu-Link.com,2013-06-02 10:37:00,
2013-06-02 06:52:00,64.0,62.8,29.70,SSW,202,3.7,-999.0,96,-99.99,,,0.03,Acu-Link.com,2013-06-02 10:52:00,
2013-06-02 07:08:00,64.0,62.8,29.70,SW,225,4.2,-999.0,96,-99.99,,,0.03,Acu-Link.com,2013-06-02 11:08:00,
2013-06-02 07:23:00,64.2,63.3,29.70,SW,225,5.3,-999.0,97,-99.99,,,0.04,Acu-Link.com,2013-06-02 11:23:00,
2013-06-02 07:38:00,64.4,63.5,29.70,SSW,202,2.7,-999.0,97,-99.99,,,0.04,Acu-Link.com,2013-06-02 11:38:00,
2013-06-02 07:54:00,64.4,63.5,29.70,SW,225,4.2,-999.0,97,-99.99,,,0.04,Acu-Link.com,2013-06-02 11:54:00,
2013-06-02 08:09:00,64.4,63.5,29.71,SW,225,3.2,-999.0,97,-99.99,,,0.04,Acu-Link.com,2013-06-02 12:09:00,
2013-06-02 08:24:00,64.4,63.5,29.70,SSW,202,4.7,-999.0,97,-99.99,,,0.04,Acu-Link.com,2013-06-02 12:24:00,
2013-06-02 08:39:00,64.4,63.5,29.70,SSW,202,3.2,-999.0,97,-99.99,,,0.04,Acu-Link.com,2013-06-02 12:39:00,
2013-06-02 08:54:00,64.6,63.7,29.69,SSW,202,2.7,-999.0,97,-99.99,,,0.05,Acu-Link.com,2013-06-02 12:54:00,
2013-06-02 09:09:00,64.9,64.0,29.69,SW,225,2.2,-999.0,97,-99.99,,,0.05,Acu-Link.com,2013-06-02 13:09:00,
2013-06-02 09:25:00,65.1,64.5,29.69,SW,225,2.7,-999.0,98,-99.99,,,0.05,Acu-Link.com,2013-06-02 13:25:00,
2013-06-02 09:40:00,65.5,64.9,29.69,SSW,202,4.2,-999.0,98,-99.99,,,0.05,Acu-Link.com,2013-06-02 13:40:00,
2013-06-02 09:55:00,65.5,64.9,29.69,SSW,202,4.2,-999.0,98,-99.99,,,0.05,Acu-Link.com,2013-06-02 13:55:00,
2013-06-02 10:11:00,65.3,64.7,29.68,SSW,202,4.2,-999.0,98,-99.99,,,0.05,Acu-Link.com,2013-06-02 14:11:00,
2013-06-02 10:26:00,65.1,64.5,29.69,SSW,202,3.7,-999.0,98,-99.99,,,0.05,Acu-Link.com,2013-06-02 14:26:00,
2013-06-02 10:41:00,65.1,64.5,29.69,SSW,202,3.2,-999.0,98,-99.99,,,0.05,Acu-Link.com,2013-06-02 14:41:00,
2013-06-02 10:56:00,65.3,64.7,29.69,SSW,202,3.2,-999.0,98,-99.99,,,0.05,Acu-Link.com,2013-06-02 14:56:00,
2013-06-02 11:11:00,65.5,64.9,29.70,SSW,202,3.7,-999.0,98,-99.99,,,0.05,Acu-Link.com,2013-06-02 15:11:00,
2013-06-02 11:26:00,65.8,65.2,29.69,SSW,202,5.3,-999.0,98,-99.99,,,0.05,Acu-Link.com,2013-06-02 15:26:00,
2013-06-02 11:41:00,66.2,65.6,29.70,SSW,202,4.2,-999.0,98,-99.99,,,0.05,Acu-Link.com,2013-06-02 15:41:00,
2013-06-02 11:56:00,66.6,66.0,29.69,SW,225,4.2,-999.0,98,-99.99,,,0.05,Acu-Link.com,2013-06-02 15:56:00,
2013-06-02 12:12:00,66.2,65.6,29.70,SSW,202,4.2,-999.0,98,-99.99,,,0.05,Acu-Link.com,2013-06-02 16:12:00,
2013-06-02 12:27:00,66.0,65.4,29.70,SSW,202,4.2,-999.0,98,-99.99,,,0.05,Acu-Link.com,2013-06-02 16:27:00,
2013-06-02 12:42:00,65.8,65.2,29.69,SSW,202,2.7,-999.0,98,-99.99,,,0.05,Acu-Link.com,2013-06-02 16:42:00,
2013-06-02 12:57:00,66.2,65.6,29.69,South,180,4.2,-999.0,98,-99.99,,,0.05,Acu-Link.com,2013-06-02 16:57:00,
2013-06-02 13:13:00,66.6,66.0,29.69,SSW,202,4.2,-999.0,98,-99.99,,,0.05,Acu-Link.com,2013-06-02 17:13:00,
2013-06-02 13:28:00,67.8,67.2,29.69,SSW,202,4.2,-999.0,98,-99.99,,,0.05,Acu-Link.com,2013-06-02 17:28:00,
2013-06-02 13:43:00,67.8,67.2,29.68,SW,225,3.7,-999.0,98,-99.99,,,0.05,Acu-Link.com,2013-06-02 17:43:00,
2013-06-02 13:58:00,67.5,67.2,29.67,SSW,202,4.2,-999.0,99,-99.99,,,0.05,Acu-Link.com,2013-06-02 17:58:00,
2013-06-02 14:13:00,68.4,68.1,29.67,SSW,202,2.2,-999.0,99,-99.99,,,0.05,Acu-Link.com,2013-06-02 18:13:00,
2013-06-02 14:29:00,70.0,68.5,29.67,SSW,202,5.3,-999.0,95,-99.99,,,0.05,Acu-Link.com,2013-06-02 18:29:00,
2013-06-02 14:44:00,71.1,69.0,29.66,SW,225,2.7,-999.0,93,-99.99,,,0.05,Acu-Link.com,2013-06-02 18:44:00,
2013-06-02 14:59:00,70.9,68.8,29.65,South,180,2.2,-999.0,93,-99.99,,,0.05,Acu-Link.com,2013-06-02 18:59:00,
2013-06-02 15:15:00,71.4,69.3,29.65,South,180,3.2,-999.0,93,-99.99,,,0.05,Acu-Link.com,2013-06-02 19:15:00,
2013-06-02 15:30:00,71.1,69.0,29.64,SSW,202,3.7,-999.0,93,-99.99,,,0.05,Acu-Link.com,2013-06-02 19:30:00,
2013-06-02 15:45:00,71.1,68.0,29.64,South,180,2.2,-999.0,90,-99.99,,,0.05,Acu-Link.com,2013-06-02 19:45:00,
2013-06-02 16:00:00,70.7,67.9,29.63,SSW,202,2.7,-999.0,91,-99.99,,,0.05,Acu-Link.com,2013-06-02 20:00:00,
2013-06-02 16:15:00,70.7,67.9,29.63,SSW,202,0.0,-999.0,91,-99.99,,,0.05,Acu-Link.com,2013-06-02 20:15:00,
2013-06-02 16:30:00,70.9,68.1,29.62,SSW,202,0.0,-999.0,91,-99.99,,,0.05,Acu-Link.com,2013-06-02 20:30:00,
2013-06-02 16:45:00,70.3,68.5,29.62,SSW,202,2.2,-999.0,94,-99.99,,,0.05,Acu-Link.com,2013-06-02 20:45:00,
2013-06-02 17:01:00,66.4,66.1,29.66,West,270,2.2,-999.0,99,-99.99,,,0.35,Acu-Link.com,2013-06-02 21:01:00,
2013-06-02 17:16:00,65.7,65.4,29.65,SW,225,0.0,-999.0,99,-99.99,,,0.69,Acu-Link.com,2013-06-02 21:16:00,
2013-06-02 17:31:00,66.0,65.7,29.63,SSW,202,0.0,-999.0,99,-99.99,,,0.78,Acu-Link.com,2013-06-02 21:31:00,
2013-06-02 17:46:00,66.0,65.7,29.63,SSW,202,0.0,-999.0,99,-99.99,,,0.78,Acu-Link.com,2013-06-02 21:46:00,
2013-06-02 18:01:00,66.0,65.7,29.62,SSW,202,0.0,-999.0,99,-99.99,,,0.79,Acu-Link.com,2013-06-02 22:01:00,
2013-06-02 18:17:00,65.8,65.5,29.63,ENE,67,0.0,-999.0,99,-99.99,,,0.79,Acu-Link.com,2013-06-02 22:17:00,
2013-06-02 18:32:00,65.7,65.4,29.63,ENE,67,0.0,-999.0,99,-99.99,,,0.80,Acu-Link.com,2013-06-02 22:32:00,
2013-06-02 18:47:00,65.5,65.2,29.63,ESE,112,0.0,-999.0,99,-99.99,,,0.82,Acu-Link.com,2013-06-02 22:47:00,
2013-06-02 19:02:00,65.3,65.0,29.62,ENE,67,0.0,-999.0,99,-99.99,,,0.83,Acu-Link.com,2013-06-02 23:02:00,
2013-06-02 19:18:00,65.1,64.8,29.63,SSW,202,0.0,-999.0,99,-99.99,,,0.84,Acu-Link.com,2013-06-02 23:18:00,
2013-06-02 19:33:00,64.9,64.6,29.62,SSW,202,0.0,-999.0,99,-99.99,,,0.90,Acu-Link.com,2013-06-02 23:33:00,
2013-06-02 19:48:00,64.9,64.6,29.64,South,180,0.0,-999.0,99,-99.99,,,0.90,Acu-Link.com,2013-06-02 23:48:00,
2013-06-02 20:03:00,65.3,65.0,29.63,SSW,202,4.7,-999.0,99,-99.99,,,0.91,Acu-Link.com,2013-06-03 00:03:00,
2013-06-02 20:18:00,65.3,65.0,29.63,SW,225,1.7,-999.0,99,-99.99,,,0.91,Acu-Link.com,2013-06-03 00:18:00,
2013-06-02 20:33:00,65.3,65.0,29.63,SSW,202,0.0,-999.0,99,-99.99,,,0.91,Acu-Link.com,2013-06-03 00:33:00,
2013-06-02 20:49:00,65.1,64.8,29.62,NE,45,0.0,-999.0,99,-99.99,,,0.91,Acu-Link.com,2013-06-03 00:49:00,
2013-06-02 21:04:00,65.1,64.8,29.63,South,180,0.0,-999.0,99,-99.99,,,0.91,Acu-Link.com,2013-06-03 01:04:00,
2013-06-02 21:19:00,65.1,64.8,29.63,East,90,0.0,-999.0,99,-99.99,,,0.91,Acu-Link.com,2013-06-03 01:19:00,
2013-06-02 21:35:00,64.9,64.6,29.62,South,180,0.0,-999.0,99,-99.99,,,0.91,Acu-Link.com,2013-06-03 01:35:00,
2013-06-02 21:50:00,64.9,64.6,29.61,ENE,67,0.0,-999.0,99,-99.99,,,0.91,Acu-Link.com,2013-06-03 01:50:00,
2013-06-02 22:05:00,64.6,64.3,29.61,ENE,67,0.0,-999.0,99,-99.99,,,0.91,Acu-Link.com,2013-06-03 02:05:00,
2013-06-02 22:21:00,64.2,63.9,29.61,South,180,0.0,-999.0,99,-99.99,,,0.92,Acu-Link.com,2013-06-03 02:21:00,
2013-06-02 22:36:00,64.0,63.7,29.62,WSW,247,0.0,-999.0,99,-99.99,,,0.92,Acu-Link.com,2013-06-03 02:36:00,
2013-06-02 23:06:00,63.9,63.6,29.63,SSW,202,0.0,-999.0,99,-99.99,,,0.92,Acu-Link.com,2013-06-03 03:06:00,
2013-06-02 23:21:00,64.0,63.7,29.62,SW,225,0.0,-999.0,99,-99.99,,,0.92,Acu-Link.com,2013-06-03 03:21:00,
2013-06-02 23:37:00,64.2,63.9,29.62,SSW,202,0.0,-999.0,99,-99.99,,,0.92,Acu-Link.com,2013-06-03 03:37:00,
2013-06-02 23:52:00,64.4,64.1,29.62,SSW,202,1.7,-999.0,99,-99.99,,,0.92,Acu-Link.com,2013-06-03 03:52:00,